Anderson, SC (29622)

12:00 PM EST on March 03, 2015 (GMT -0500)
Southwood Area | Change Station
CLOSE
Current Station
Personal Weather Station
Location: Anderson, SC
Elevation: 722 ft
Nearby Weather Stations

Elev 722 ft 34.49 °N, 82.66 °W | Updated 8 seconds ago

Rain
Rain
44.1 °F
Feels Like 40 °F
N
6.9
Wind Variable Wind from ENE
Gusts 9.0 mph

Today
High -- | Low -- °F
--% Chance of Precip.
Yesterday
High -- | Low -- °F
Precip. -- in
6:57 AM 6:28 PM
Waxing Gibbous, 96% visible
Pressure 30.28 in
Visibility 3.0 miles
Clouds Overcast 600 ft
Windchill 40 °F
Dew Point 42 °F
Humidity 92%
Rainfall 0.02 in
Snow Depth Not available.
UV 2 out of 12
Pollen .40 out of 12
Air Quality Not available.
Flu Activity Not available.
METAR KAND 031656Z AUTO 05006KT 3SM BR OVC006 07/06 A3028 RMK AO2 RAE35 SLP252 P0001 T00670056

More Conditions Fewer Conditions

Pressure 30.28 in
Visibility 3.0 miles
Clouds Overcast 600 ft
Windchill 40 °F
Dew Point 42 °F
Humidity 92%
Rainfall 0.02 in
Snow Depth Not available.
UV 2 out of 12
Pollen .40 out of 12
Air Quality Not available.
Flu Activity Not available.
METAR KAND 031656Z AUTO 05006KT 3SM BR OVC006 07/06 A3028 RMK AO2 RAE35 SLP252 P0001 T00670056

More Conditions Fewer Conditions

10-Day Weather Forecast

Almanac

Astronomy

Mar. 03, 2015 Rise Set
Actual Time
Civil Twilight
Nautical Twilight
Astronomical Twilight
Moon
Length of Visible Light
Length of Day
Tomorrow will be .
, % of the Moon is Illuminated

Today's Extremes

State Highs State Lows

Community

WunderPhotos

Upload Photos

1,802,172 photos uploaded!

WunderBlogs® & News

Nearby

Air Quality

  Air Quality AQ Index Pollutant
Not available.

Snow Depth

Station Depth Elevation

Earthquake Activity

City Distance Mag. Time & Date
Minimum magnitude displayed is 2.5.

Coastal Water Temperatures

Place Temperature

Nearby Weather Stations